Time;durP1;ratioP1;P1;durP2;ratioP2;P2;SDS_P1;SDS_P2;PMS_P1;PMS_P2;Temp;Humidity;BMP_temperature;BMP_pressure;BME280_temperature;BME280_humidity;BME280_pressure;Samples;Min_cycle;Max_cycle;Signal;HPM_P1;HPM_P2
2023/04/19 00:00:17;;;;;;;9.88;7.47;;;;;;;9.33;96.20;102678.31;5090612;28;20400;-35
2023/04/19 00:02:42;;;;;;;9.27;7.93;;;;;;;9.37;96.46;102670.66;5089965;28;20055;-35
2023/04/19 00:05:08;;;;;;;8.30;7.33;;;;;;;9.36;96.51;102669.00;5090049;28;20035;-35
2023/04/19 00:07:34;;;;;;;;;;;;;;;9.41;96.87;102672.84;5090880;28;20024;-35
2023/04/19 00:09:59;;;;;;;7.95;7.15;;;;;;;9.42;96.40;102663.72;5090414;28;19995;-35
2023/04/19 00:12:25;;;;;;;8.57;7.77;;;;;;;9.40;96.45;102670.31;5081455;28;20031;-35
2023/04/19 00:14:50;;;;;;;8.27;7.57;;;;;;;9.46;96.78;102656.94;5076569;28;20086;-35
2023/04/19 00:17:15;;;;;;;8.97;8.17;;;;;;;9.49;95.84;102659.28;5076282;28;20033;-35
2023/04/19 00:19:41;;;;;;;8.07;7.27;;;;;;;9.49;96.50;102656.59;5076417;28;20396;-35
2023/04/19 00:22:07;;;;;;;8.85;8.05;;;;;;;9.52;96.91;102655.41;5075880;28;20828;-35
2023/04/19 00:24:32;;;;;;;9.03;8.20;;;;;;;9.47;97.11;102647.84;5076098;28;20021;-35
2023/04/19 00:26:58;;;;;;;10.43;8.73;;;;;;;9.47;96.78;102642.44;5076695;28;20266;-35
2023/04/19 00:29:23;;;;;;;9.15;8.25;;;;;;;9.59;96.65;102658.22;5075773;28;20523;-35
2023/04/19 00:31:49;;;;;;;9.90;9.00;;;;;;;9.57;96.47;102658.41;5076110;28;20135;-35
2023/04/19 00:34:14;;;;;;;9.77;8.83;;;;;;;9.55;96.63;102645.06;5075913;28;20025;-35
2023/04/19 00:36:39;;;;;;;10.37;8.47;;;;;;;9.61;96.61;102662.41;5075907;28;20332;-35
2023/04/19 00:39:05;;;;;;;8.60;7.80;;;;;;;9.57;96.63;102647.59;5075841;28;20032;-35
2023/04/19 00:41:30;;;;;;;9.02;8.23;;;;;;;9.51;96.75;102632.94;5076383;28;20032;-36
2023/04/19 00:43:56;;;;;;;8.80;8.00;;;;;;;9.65;97.06;102649.38;5075843;28;20100;-36
2023/04/19 00:46:22;;;;;;;9.03;8.10;;;;;;;9.65;97.49;102643.97;5076346;28;20069;-36
2023/04/19 00:48:48;;;;;;;;;;;;;;;9.68;97.31;102659.84;5076922;28;20029;-36
2023/04/19 00:51:14;;;;;;;8.98;8.07;;;;;;;9.63;97.21;102649.56;5076285;28;19916;-36
2023/04/19 00:53:40;;;;;;;9.45;8.57;;;;;;;9.63;98.08;102657.66;5075616;28;20021;-36
2023/04/19 00:56:05;;;;;;;9.05;8.10;;;;;;;9.63;98.27;102657.66;5076119;28;20050;-36
2023/04/19 00:58:31;;;;;;;9.77;8.45;;;;;;;9.62;98.30;102649.75;5075249;28;20056;-36
2023/04/19 01:00:57;;;;;;;9.77;8.77;;;;;;;9.67;98.23;102650.06;5075182;28;20048;-36
2023/04/19 01:03:22;;;;;;;9.20;8.27;;;;;;;9.65;98.46;102650.22;5075389;28;20047;-36
2023/04/19 01:05:48;;;;;;;9.50;8.60;;;;;;;9.66;99.19;102642.94;5075711;28;20499;-36
2023/04/19 01:08:13;;;;;;;9.00;8.10;;;;;;;9.65;98.77;102650.22;5075847;28;20436;-36
2023/04/19 01:10:39;;;;;;;8.90;8.07;;;;;;;9.66;98.89;102648.34;5076139;28;20062;-36
2023/04/19 01:13:05;;;;;;;9.30;8.40;;;;;;;9.65;99.08;102642.09;5075251;28;20103;-36
2023/04/19 01:15:30;;;;;;;9.90;8.38;;;;;;;9.66;99.10;102645.66;5075701;28;20070;-36
2023/04/19 01:17:56;;;;;;;9.15;8.27;;;;;;;9.65;99.65;102643.97;5075082;28;20029;-36
2023/04/19 01:20:22;;;;;;;9.82;8.75;;;;;;;9.66;100.00;102643.81;5075271;28;20032;-36
2023/04/19 01:22:47;;;;;;;9.32;8.48;;;;;;;9.58;99.46;102632.22;5074780;28;20020;-36
2023/04/19 01:25:12;;;;;;;9.03;8.13;;;;;;;9.63;99.79;102636.06;5074282;28;20035;-36
2023/04/19 01:27:38;;;;;;;10.02;8.50;;;;;;;9.57;100.00;102631.38;5075455;28;20214;-36
2023/04/19 01:30:04;;;;;;;9.68;8.77;;;;;;;9.63;100.00;102629.81;5075503;28;20491;-36
2023/04/19 01:32:29;;;;;;;9.20;8.30;;;;;;;9.64;100.00;102642.31;5074738;28;20036;-36
2023/04/19 01:34:54;;;;;;;8.83;7.93;;;;;;;9.66;100.00;102637.53;5074541;28;20031;-36
2023/04/19 01:37:20;;;;;;;12.83;9.17;;;;;;;9.60;100.00;102640.97;5075227;28;20271;-36
2023/04/19 01:39:45;;;;;;;9.40;8.53;;;;;;;9.66;100.00;102635.72;5075209;28;20377;-36
2023/04/19 01:42:10;;;;;;;9.40;8.50;;;;;;;9.68;100.00;102640.91;5074928;28;20020;-36
2023/04/19 01:44:36;;;;;;;10.13;8.07;;;;;;;9.69;100.00;102638.03;5074615;28;20067;-36
2023/04/19 01:47:01;;;;;;;10.73;8.90;;;;;;;9.71;100.00;102636.00;5074563;28;20029;-38
2023/04/19 01:49:26;;;;;;;9.80;8.83;;;;;;;9.75;100.00;102636.47;5074724;28;20031;-36
2023/04/19 01:51:52;;;;;;;10.93;9.07;;;;;;;9.76;100.00;102632.72;5075030;28;20162;-36
2023/04/19 01:54:17;;;;;;;9.32;8.43;;;;;;;9.77;100.00;102631.72;5074637;28;20020;-36
2023/04/19 01:56:42;;;;;;;12.07;9.37;;;;;;;9.77;100.00;102629.88;5074620;28;20397;-36
2023/04/19 01:59:08;;;;;;;8.50;7.70;;;;;;;9.66;100.00;102603.28;5074262;28;20095;-36
2023/04/19 02:01:33;;;;;;;11.07;9.38;;;;;;;9.78;100.00;102617.19;5074181;28;20133;-36
2023/04/19 02:04:01;;;;;;;9.57;8.67;;;;;;;9.78;100.00;102622.59;5074251;28;20033;-36
2023/04/19 02:06:27;;;;;;;12.25;9.10;;;;;;;9.83;100.00;102613.94;5074133;28;20792;-36
2023/04/19 02:08:52;;;;;;;9.77;8.77;;;;;;;9.79;100.00;102613.47;5073884;28;20025;-36
2023/04/19 02:11:17;;;;;;;9.40;8.35;;;;;;;9.88;100.00;102622.34;5074132;28;20032;-36
2023/04/19 02:13:43;;;;;;;11.37;8.63;;;;;;;9.82;100.00;102606.88;5074043;28;20024;-36
2023/04/19 02:16:10;;;;;;;10.40;9.23;;;;;;;9.88;100.00;102622.34;5073749;28;20669;-36
2023/04/19 02:18:39;;;;;;;10.48;8.82;;;;;;;9.87;100.00;102615.25;5074008;28;20028;-36
2023/04/19 02:21:06;;;;;;;10.15;8.65;;;;;;;9.88;100.00;102608.84;5074142;28;20033;-36
2023/04/19 02:23:31;;;;;;;9.35;8.40;;;;;;;9.74;100.00;102599.66;5073895;28;20028;-36
2023/04/19 02:25:57;;;;;;;9.57;8.57;;;;;;;9.82;100.00;102615.81;5074508;28;20518;-36
2023/04/19 02:28:22;;;;;;;10.82;8.25;;;;;;;9.82;100.00;102609.56;5073869;28;20028;-36
2023/04/19 02:30:47;;;;;;;10.50;8.87;;;;;;;9.77;100.00;102612.81;5074480;28;20032;-36
2023/04/19 02:33:14;;;;;;;10.30;8.40;;;;;;;9.68;100.00;102606.63;5073826;28;20278;-36
2023/04/19 02:35:39;;;;;;;9.55;8.35;;;;;;;9.72;100.00;102615.22;5074114;28;20392;-36
2023/04/19 02:38:04;;;;;;;10.30;8.98;;;;;;;9.71;100.00;102617.09;5073468;28;20028;-36
2023/04/19 02:40:30;;;;;;;8.77;7.80;;;;;;;9.63;100.00;102608.22;5074458;28;20471;-36
2023/04/19 02:42:55;;;;;;;10.77;8.50;;;;;;;9.49;100.00;102591.78;5073396;28;20031;-36
2023/04/19 02:45:21;;;;;;;9.83;8.53;;;;;;;9.64;100.00;102618.81;5074501;28;20036;-36
2023/04/19 02:47:46;;;;;;;9.88;8.43;;;;;;;9.59;100.00;102621.22;5073622;27;20271;-36
2023/04/19 02:50:13;;;;;;;8.13;7.33;;;;;;;9.54;100.00;102618.22;5073672;28;20055;-36
2023/04/19 02:52:39;;;;;;;9.40;8.50;;;;;;;9.47;100.00;102614.59;5073282;28;20502;-36
2023/04/19 02:55:05;;;;;;;9.07;7.82;;;;;;;9.51;100.00;102624.81;5073819;28;20029;-36
2023/04/19 02:57:31;;;;;;;10.50;8.30;;;;;;;9.51;100.00;102621.28;5073532;28;20078;-36
2023/04/19 02:59:57;;;;;;;8.35;7.30;;;;;;;9.45;100.00;102612.06;5073228;28;20084;-36
2023/04/19 03:02:23;;;;;;;9.20;7.63;;;;;;;9.41;100.00;102608.03;5073439;28;20078;-36
2023/04/19 03:04:48;;;;;;;8.57;7.50;;;;;;;9.47;100.00;102625.41;5073782;28;20533;-36
2023/04/19 03:07:14;;;;;;;8.90;7.93;;;;;;;9.38;100.00;102616.50;5073163;28;20047;-36
2023/04/19 03:09:39;;;;;;;9.63;8.68;;;;;;;9.39;100.00;102617.34;5074267;28;20050;-36
2023/04/19 03:12:06;;;;;;;9.63;7.93;;;;;;;9.44;100.00;102620.34;5073907;28;20021;-36
2023/04/19 03:14:35;;;;;;;10.95;8.73;;;;;;;9.43;100.00;102624.91;5073685;28;20025;-36
2023/04/19 03:17:00;;;;;;;8.60;7.70;;;;;;;9.41;100.00;102626.94;5073606;28;20443;-36
2023/04/19 03:19:26;;;;;;;8.88;7.03;;;;;;;9.38;100.00;102616.50;5073356;28;20024;-36
2023/04/19 03:21:51;;;;;;;11.83;8.17;;;;;;;9.39;100.00;102611.94;5074090;28;20464;-36
2023/04/19 03:24:25;;;;;;;9.77;7.90;;;;;;;9.43;100.00;102621.38;5073017;28;20059;-36
2023/04/19 03:26:51;;;;;;;8.77;7.90;;;;;;;9.37;100.00;102612.13;5073508;28;20024;-36
2023/04/19 03:29:16;;;;;;;8.50;7.70;;;;;;;9.40;100.00;102611.75;5073011;28;20515;-36
2023/04/19 03:31:41;;;;;;;9.97;8.03;;;;;;;9.44;100.00;102615.78;5073752;28;20489;-36
2023/04/19 03:34:06;;;;;;;8.80;8.00;;;;;;;9.43;100.00;102613.28;5073996;28;20028;-36
2023/04/19 03:36:32;;;;;;;8.93;8.03;;;;;;;9.41;100.00;102616.13;5073221;28;20059;-36
2023/04/19 03:38:57;;;;;;;10.00;7.73;;;;;;;9.42;100.00;102606.16;5073138;28;20029;-36
2023/04/19 03:41:24;;;;;;;7.90;7.10;;;;;;;9.45;100.00;102605.81;5073304;28;20032;-36
2023/04/19 03:43:50;;;;;;;9.70;8.38;;;;;;;9.45;100.00;102605.81;5073830;28;20384;-36
2023/04/19 03:46:15;;;;;;;8.20;7.40;;;;;;;9.42;100.00;102600.75;5073361;28;20047;-36
2023/04/19 03:48:40;;;;;;;8.40;7.60;;;;;;;9.40;100.00;102609.06;5076520;28;20278;-36
2023/04/19 03:51:06;;;;;;;8.43;7.63;;;;;;;9.38;100.00;102610.28;5077082;28;20404;-36
2023/04/19 03:53:31;;;;;;;8.50;7.47;;;;;;;9.35;100.00;102603.34;5077491;28;20033;-36
2023/04/19 03:55:57;;;;;;;8.53;7.70;;;;;;;9.31;100.00;102606.59;5077256;28;20028;-36
2023/04/19 03:58:22;;;;;;;11.07;7.33;;;;;;;9.34;100.00;102612.47;5076585;28;20761;-36
2023/04/19 04:00:47;;;;;;;8.20;7.30;;;;;;;9.30;100.00;102603.06;5076683;28;20082;-36
2023/04/19 04:03:13;;;;;;;7.80;7.10;;;;;;;9.33;100.00;102610.81;5076520;28;20263;-36
2023/04/19 04:05:38;;;;;;;7.88;7.15;;;;;;;9.34;100.00;102608.94;5076519;28;20457;-36
2023/04/19 04:08:04;;;;;;;8.83;6.73;;;;;;;9.32;100.00;102609.13;5076703;28;20036;-36
2023/04/19 04:10:29;;;;;;;8.80;6.97;;;;;;;9.22;100.00;102603.97;5077245;28;20029;-36
2023/04/19 04:12:55;;;;;;;8.67;7.77;;;;;;;9.22;100.00;102598.56;5076654;28;20028;-36
2023/04/19 04:15:20;;;;;;;7.20;6.50;;;;;;;9.28;100.00;102615.91;5076057;28;20048;-36
2023/04/19 04:17:46;;;;;;;8.90;7.00;;;;;;;9.25;100.00;102610.84;5076371;28;20111;-36
2023/04/19 04:20:12;;;;;;;8.15;6.72;;;;;;;9.15;100.00;102599.44;5076456;28;20031;-36
2023/04/19 04:22:47;;;;;;;8.88;7.35;;;;;;;9.19;100.00;102619.69;5076143;28;20503;-36
2023/04/19 04:25:15;;;;;;;6.65;6.05;;;;;;;9.13;100.00;102605.03;5076449;28;20027;-36
2023/04/19 04:27:42;;;;;;;7.80;6.68;;;;;;;9.14;100.00;102625.59;5076057;28;20078;-36
2023/04/19 04:30:08;;;;;;;8.10;5.82;;;;;;;9.10;100.00;102618.03;5076368;28;20059;-36
2023/04/19 04:32:34;;;;;;;8.70;6.88;;;;;;;9.03;100.00;102607.97;5076350;28;20060;-36
2023/04/19 04:35:06;;;;;;;6.20;5.60;;;;;;;9.03;100.00;102621.47;5076323;28;20028;-36
2023/04/19 04:37:33;;;;;;;6.28;5.60;;;;;;;8.95;100.00;102621.50;5075869;28;20115;-36
2023/04/19 04:40:04;;;;;;;5.80;5.20;;;;;;;8.85;100.00;102617.34;5076143;28;20036;-36
2023/04/19 04:42:30;;;;;;;5.88;5.28;;;;;;;8.84;100.00;102624.59;5076689;28;20028;-36
2023/04/19 04:44:56;;;;;;;5.68;4.82;;;;;;;8.79;100.00;102626.97;5076692;28;20511;-36
2023/04/19 04:47:22;;;;;;;6.60;5.30;;;;;;;8.76;100.00;102636.25;5074504;28;20070;-36
2023/04/19 04:49:48;;;;;;;6.07;4.43;;;;;;;8.74;100.00;102641.00;5076069;28;20028;-36
2023/04/19 04:52:13;;;;;;;7.03;5.30;;;;;;;8.69;100.00;102642.53;5075427;28;20028;-36
2023/04/19 04:54:38;;;;;;;5.93;5.33;;;;;;;8.62;100.00;102642.38;5076218;28;20048;-36
2023/04/19 04:57:04;;;;;;;5.50;4.97;;;;;;;8.58;100.00;102638.34;5075377;28;20028;-36
2023/04/19 04:59:29;;;;;;;5.83;5.33;;;;;;;8.51;100.00;102635.50;5075459;28;20479;-36
2023/04/19 05:01:54;;;;;;;6.70;5.40;;;;;;;8.40;100.00;102625.09;5076142;28;20290;-36
2023/04/19 05:04:20;;;;;;;6.57;5.37;;;;;;;8.34;100.00;102609.56;5075385;28;20060;-36
2023/04/19 05:06:45;;;;;;;6.97;5.97;;;;;;;8.43;100.00;102640.91;5075707;28;20060;-36
2023/04/19 05:09:11;;;;;;;7.50;5.28;;;;;;;8.46;100.00;102628.97;5075306;28;20040;-36
2023/04/19 05:11:36;;;;;;;6.20;5.50;;;;;;;8.45;100.00;102638.91;5075338;28;20111;-36
2023/04/19 05:14:02;;;;;;;7.37;5.43;;;;;;;8.44;100.00;102650.72;5074881;28;20287;-36
2023/04/19 05:16:28;;;;;;;6.03;5.43;;;;;;;8.31;100.00;102623.41;5075512;28;20297;-36
2023/04/19 05:18:53;;;;;;;6.05;5.20;;;;;;;8.44;100.00;102639.06;5074888;28;20021;-36
2023/04/19 05:21:19;;;;;;;6.30;5.23;;;;;;;8.49;100.00;102645.63;5074760;28;20391;-36
2023/04/19 05:23:44;;;;;;;6.37;5.73;;;;;;;8.40;100.00;102637.75;5075342;28;20278;-36
2023/04/19 05:26:11;;;;;;;5.97;4.95;;;;;;;8.48;100.00;102657.41;5074657;28;20052;-36
2023/04/19 05:28:37;;;;;;;7.22;5.40;;;;;;;8.46;100.00;102645.13;5075469;28;20032;-36
2023/04/19 05:31:03;;;;;;;5.47;4.97;;;;;;;8.42;100.00;102650.03;5108194;28;20376;-36
2023/04/19 05:33:28;;;;;;;5.57;5.07;;;;;;;8.35;100.00;102651.72;5074833;28;20111;-36
2023/04/19 05:35:53;;;;;;;6.37;5.03;;;;;;;8.35;100.00;102656.25;5075432;28;20430;-36
2023/04/19 05:38:19;;;;;;;6.37;5.50;;;;;;;8.31;100.00;102653.06;5074512;28;20306;-36
2023/04/19 05:40:45;;;;;;;5.07;4.60;;;;;;;8.31;100.00;102646.84;5074648;28;20028;-36
2023/04/19 05:43:10;;;;;;;5.45;4.60;;;;;;;8.30;100.00;102651.38;5074610;28;20025;-36
2023/04/19 05:45:36;;;;;;;6.07;4.70;;;;;;;8.20;100.00;102637.25;5075198;28;20060;-36
2023/04/19 05:48:01;;;;;;;6.68;5.00;;;;;;;8.28;100.00;102653.41;5075316;28;20111;-36
2023/04/19 05:50:26;;;;;;;8.17;5.00;;;;;;;8.35;100.00;102649.00;5073278;28;20125;-36
2023/04/19 05:52:52;;;;;;;5.20;4.53;;;;;;;8.40;100.00;102646.69;5074447;28;20028;-36
2023/04/19 05:55:17;;;;;;;7.27;4.90;;;;;;;8.48;100.00;102645.78;5075309;28;20025;-36
2023/04/19 05:57:42;;;;;;;5.47;4.97;;;;;;;8.54;100.00;102639.72;5074900;28;20028;-36
2023/04/19 06:00:08;;;;;;;5.57;4.27;;;;;;;8.55;100.00;102635.16;5074380;28;20135;-36
2023/04/19 06:02:35;;;;;;;5.00;4.40;;;;;;;8.62;99.35;102646.94;5074276;28;20307;-35
2023/04/19 06:05:03;;;;;;;;;;;;;;;8.70;99.54;102650.44;5075580;28;20156;-36
2023/04/19 06:07:29;;;;;;;6.15;4.47;;;;;;;8.77;98.44;102648.72;5074738;28;19908;-36
2023/04/19 06:09:55;;;;;;;6.22;4.68;;;;;;;8.88;95.59;102652.03;5073718;28;20032;-36
2023/04/19 06:12:20;;;;;;;5.20;3.88;;;;;;;8.97;93.32;102651.00;5073799;28;20052;-36
2023/04/19 06:14:45;;;;;;;4.90;4.30;;;;;;;9.10;92.40;102655.81;5074345;28;20028;-36
2023/04/19 06:17:11;;;;;;;4.97;4.27;;;;;;;9.22;92.85;102649.00;5074038;28;20031;-36
2023/04/19 06:19:36;;;;;;;5.03;4.10;;;;;;;9.27;90.89;102658.25;5073603;28;20469;-36
2023/04/19 06:22:01;;;;;;;6.25;4.30;;;;;;;9.28;88.18;102653.69;5073865;28;20059;-36
2023/04/19 06:24:27;;;;;;;4.57;3.93;;;;;;;9.29;87.51;102653.50;5073748;28;20031;-36
2023/04/19 06:26:52;;;;;;;4.40;4.00;;;;;;;9.36;88.88;102645.53;5073919;28;20024;-36
2023/04/19 06:29:20;;;;;;;4.90;4.03;;;;;;;9.38;87.25;102638.09;5073522;28;20067;-36
2023/04/19 06:31:46;;;;;;;6.55;3.88;;;;;;;9.48;85.90;102656.78;5074188;28;20036;-36
2023/04/19 06:34:11;;;;;;;7.13;3.88;;;;;;;9.46;84.67;102654.22;5074578;28;20093;-36
2023/04/19 06:36:36;;;;;;;6.93;4.10;;;;;;;9.50;84.67;102652.84;5074670;28;20350;-36
2023/04/19 06:39:02;;;;;;;5.93;4.23;;;;;;;9.47;83.81;102645.13;5073742;28;20267;-36
2023/04/19 06:41:28;;;;;;;7.22;3.80;;;;;;;9.51;83.42;102648.28;5073646;28;20027;-36
2023/04/19 06:43:53;;;;;;;3.83;3.43;;;;;;;9.52;82.58;102645.44;5073719;28;20111;-36
2023/04/19 06:46:19;;;;;;;4.37;3.70;;;;;;;9.47;80.45;102649.69;5073716;28;20319;-36
2023/04/19 06:48:44;;;;;;;4.50;3.58;;;;;;;9.61;81.71;102650.75;5073373;28;20384;-36
2023/04/19 06:51:10;;;;;;;5.85;3.97;;;;;;;9.59;81.57;102639.31;5074429;28;20029;-36
2023/04/19 06:53:36;;;;;;;5.32;3.63;;;;;;;9.70;80.38;102652.38;5073571;28;20423;-36
2023/04/19 06:56:03;;;;;;;6.13;3.75;;;;;;;9.65;79.28;102650.22;5073836;28;20028;-36
2023/04/19 06:58:30;;;;;;;4.05;3.20;;;;;;;9.68;79.04;102638.22;5073499;28;20032;-36
2023/04/19 07:00:56;;;;;;;5.75;3.63;;;;;;;9.73;77.37;102649.31;5073921;28;20040;-36
2023/04/19 07:03:21;;;;;;;4.47;3.60;;;;;;;9.66;78.13;102646.50;5106139;28;20562;-36
2023/04/19 07:05:47;;;;;;;3.97;3.45;;;;;;;9.76;77.43;102655.22;5073482;28;20024;-36
2023/04/19 07:08:12;;;;;;;5.25;3.72;;;;;;;9.77;76.14;102642.53;5073683;28;20027;-36
2023/04/19 07:10:38;;;;;;;4.40;3.53;;;;;;;9.90;75.84;102647.31;5073412;28;20043;-36
2023/04/19 07:13:03;;;;;;;8.35;3.78;;;;;;;9.89;75.38;102640.22;5073106;28;20056;-36
2023/04/19 07:15:29;;;;;;;7.27;3.40;;;;;;;9.95;74.91;102656.53;5073967;28;20112;-35
2023/04/19 07:17:54;;;;;;;4.23;3.40;;;;;;;9.96;74.80;102647.44;5072988;28;20723;-35
2023/04/19 07:20:20;;;;;;;5.32;3.40;;;;;;;10.02;74.63;102641.28;5073789;28;20324;-35
2023/04/19 07:22:46;;;;;;;4.55;3.28;;;;;;;10.09;73.85;102644.09;5075560;28;20457;-35
2023/04/19 07:25:11;;;;;;;5.53;3.70;;;;;;;10.15;73.34;102645.22;5077882;28;20033;-35
2023/04/19 07:27:36;;;;;;;6.80;4.20;;;;;;;10.06;71.81;102633.66;5077242;28;20112;-34
2023/04/19 07:30:02;;;;;;;5.73;3.97;;;;;;;10.22;71.23;102636.19;5076837;28;20313;-34
2023/04/19 07:32:28;;;;;;;4.70;3.67;;;;;;;10.30;71.24;102643.41;5077161;28;20029;-35
2023/04/19 07:34:53;;;;;;;4.70;3.60;;;;;;;10.38;71.69;102642.47;5077216;28;20117;-35
2023/04/19 07:37:18;;;;;;;5.23;3.20;;;;;;;10.45;69.87;102641.56;5077424;28;20538;-35
2023/04/19 07:39:44;;;;;;;4.23;3.20;;;;;;;10.40;68.53;102649.38;5077309;28;20338;-35
2023/04/19 07:42:10;;;;;;;4.70;3.60;;;;;;;10.43;68.21;102651.72;5077170;28;20379;-35
2023/04/19 07:44:35;;;;;;;5.88;3.38;;;;;;;10.48;68.32;102637.63;5077776;28;20029;-35
2023/04/19 07:47:03;;;;;;;4.75;3.35;;;;;;;10.67;69.21;102639.75;5077741;28;20031;-35
2023/04/19 07:49:32;;;;;;;6.80;3.42;;;;;;;10.62;65.99;102639.47;5076584;28;20462;-35
2023/04/19 07:51:58;;;;;;;3.78;3.13;;;;;;;10.56;65.36;102641.06;5077016;28;20039;-35
2023/04/19 07:54:23;;;;;;;5.90;3.20;;;;;;;10.63;66.53;102637.63;5076497;28;20473;-35
2023/04/19 07:56:49;;;;;;;3.85;3.00;;;;;;;10.76;66.35;102640.50;5077092;28;20032;-35
2023/04/19 07:59:14;;;;;;;4.60;3.50;;;;;;;10.80;66.72;102633.69;5076917;28;20036;-35
2023/04/19 08:01:40;;;;;;;3.63;2.80;;;;;;;10.95;68.24;102630.97;5077581;28;20384;-35
2023/04/19 08:04:06;;;;;;;4.90;3.40;;;;;;;10.87;64.35;102620.22;5076244;28;20515;-35
2023/04/19 08:06:32;;;;;;;7.43;3.58;;;;;;;10.98;64.82;102630.56;5076536;28;20118;-36
2023/04/19 08:08:57;;;;;;;3.80;2.92;;;;;;;11.11;66.06;102625.31;5076261;28;20032;-35
2023/04/19 08:11:23;;;;;;;5.40;3.47;;;;;;;11.21;65.14;102635.81;5077032;28;20036;-35
2023/04/19 08:13:49;;;;;;;5.47;3.53;;;;;;;11.17;63.48;102638.06;5076606;28;20037;-35
2023/04/19 08:16:15;;;;;;;5.22;3.38;;;;;;;11.24;63.13;102638.16;5076004;28;20032;-35
2023/04/19 08:18:40;;;;;;;4.85;2.95;;;;;;;11.32;63.45;102632.59;5076375;28;20074;-35
2023/04/19 08:21:09;;;;;;;3.92;3.20;;;;;;;11.32;62.23;102632.59;5076036;28;20044;-35
2023/04/19 08:23:34;;;;;;;5.63;3.10;;;;;;;11.42;63.71;102622.31;5074944;28;20048;-35
2023/04/19 08:26:00;;;;;;;6.97;3.10;;;;;;;11.52;62.38;102628.25;5075787;28;20429;-36
2023/04/19 08:28:25;;;;;;;5.70;3.53;;;;;;;11.60;62.81;102630.81;5074550;28;20031;-36
2023/04/19 08:30:50;;;;;;;5.97;3.47;;;;;;;11.67;60.34;102625.47;5076358;28;20028;-36
2023/04/19 08:33:16;;;;;;;4.03;2.90;;;;;;;11.77;59.82;102625.13;5075846;28;20115;-36
2023/04/19 08:35:41;;;;;;;3.40;3.00;;;;;;;11.76;59.27;102623.44;5075998;28;20056;-36
2023/04/19 08:38:07;;;;;;;3.50;2.70;;;;;;;11.75;58.74;102621.78;5076517;28;20285;-36
2023/04/19 08:40:33;;;;;;;6.78;2.67;;;;;;;11.81;57.86;102623.72;5075849;28;20031;-36
2023/04/19 08:42:58;;;;;;;4.18;2.70;;;;;;;11.86;57.04;102634.84;5075860;28;20029;-37
2023/04/19 08:45:26;;;;;;;6.35;2.30;;;;;;;11.87;58.13;102622.97;5075165;28;20445;-35
2023/04/19 08:47:53;;;;;;;5.85;2.83;;;;;;;11.93;56.76;102621.34;5075671;28;20035;-35
2023/04/19 08:50:20;;;;;;;4.55;2.58;;;;;;;11.78;54.27;102611.38;5076045;28;20037;-35
2023/04/19 08:52:46;;;;;;;6.63;2.88;;;;;;;11.76;53.93;102624.31;5075632;28;20032;-35
2023/04/19 08:55:13;;;;;;;3.25;2.38;;;;;;;11.87;54.07;102630.25;5075613;28;20025;-36
2023/04/19 08:57:39;;;;;;;5.03;2.50;;;;;;;11.98;53.74;102627.84;5074548;28;20032;-36
2023/04/19 09:00:07;;;;;;;2.88;2.20;;;;;;;11.95;54.09;102630.09;5075438;28;20457;-35
2023/04/19 09:02:47;;;;;;;3.28;2.38;;;;;;;12.04;53.93;102610.78;5074769;28;20053;-35
2023/04/19 09:05:14;;;;;;;2.45;1.88;;;;;;;12.16;52.11;102621.09;5075655;28;20507;-35
2023/04/19 09:07:39;;;;;;;5.70;1.90;;;;;;;12.26;53.68;102640.56;5075355;28;20463;-35
2023/04/19 09:10:06;;;;;;;2.75;2.10;;;;;;;12.27;53.13;102620.53;5075239;28;20121;-35
2023/04/19 09:12:33;;;;;;;5.78;2.20;;;;;;;12.06;50.74;102616.84;5075469;28;20380;-36
2023/04/19 09:15:00;;;;;;;3.78;2.90;;;;;;;12.08;50.85;102617.47;5075232;28;20530;-35
2023/04/19 09:17:25;;;;;;;4.72;1.85;;;;;;;12.17;51.12;102625.47;5074816;28;20036;-35
2023/04/19 09:19:50;;;;;;;3.80;2.10;;;;;;;12.27;51.54;102612.38;5075728;28;20021;-36
2023/04/19 09:22:16;;;;;;;2.67;2.40;;;;;;;12.14;50.98;102599.56;5075738;28;20029;-36
2023/04/19 09:24:42;;;;;;;2.58;1.90;;;;;;;12.35;52.06;102613.06;5075337;28;20357;-36
2023/04/19 09:27:10;;;;;;;2.90;1.88;;;;;;;12.44;51.98;102616.44;5075066;28;20469;-36
2023/04/19 09:29:37;;;;;;;5.95;2.20;;;;;;;12.32;51.61;102597.19;5073944;28;20039;-36
2023/04/19 09:32:02;;;;;;;;;;;;;;;12.70;53.01;102621.19;5076229;28;20430;-36
2023/04/19 09:34:29;;;;;;;5.53;2.40;;;;;;;12.62;50.78;102629.50;5074582;28;19951;-36
2023/04/19 09:36:55;;;;;;;3.28;2.00;;;;;;;12.71;50.92;102616.59;5074832;28;20469;-36
2023/04/19 09:39:35;;;;;;;5.22;1.95;;;;;;;12.60;51.90;102618.84;5074710;28;20025;-36
2023/04/19 09:42:00;;;;;;;3.47;2.10;;;;;;;12.67;50.16;102602.56;5074950;28;20031;-36
2023/04/19 09:44:27;;;;;;;7.05;2.45;;;;;;;12.35;49.09;102623.09;5072740;28;20111;-36
2023/04/19 09:46:54;;;;;;;2.95;1.80;;;;;;;12.44;49.28;102613.72;5075166;28;20035;-36
2023/04/19 09:49:25;;;;;;;3.65;2.10;;;;;;;12.49;49.62;102605.00;5074241;28;20028;-36
2023/04/19 09:51:55;;;;;;;3.33;1.83;;;;;;;12.54;49.10;102619.66;5073708;28;20024;-36
2023/04/19 09:54:23;;;;;;;3.20;1.80;;;;;;;12.64;50.77;102605.72;5074408;28;20468;-36
2023/04/19 09:56:49;;;;;;;2.72;2.00;;;;;;;12.60;47.42;102604.44;5074967;28;20033;-36
2023/04/19 09:59:15;;;;;;;3.15;2.00;;;;;;;12.72;48.35;102602.81;5074063;28;20028;-36
2023/04/19 10:01:43;;;;;;;4.35;1.90;;;;;;;12.87;49.78;102600.78;5074657;28;20430;-36
2023/04/19 10:04:20;;;;;;;3.70;1.60;;;;;;;13.01;48.84;102607.09;5074172;28;20078;-36
2023/04/19 10:06:51;;;;;;;4.10;1.80;;;;;;;13.03;46.07;102602.31;5074505;28;20029;-36
2023/04/19 10:09:20;;;;;;;5.82;1.80;;;;;;;12.99;46.52;102587.47;5074155;28;20461;-36
2023/04/19 10:11:48;;;;;;;3.00;1.67;;;;;;;13.00;48.07;102602.72;5074462;28;20186;-36
2023/04/19 10:14:15;;;;;;;2.95;1.65;;;;;;;13.05;46.73;102610.25;5074898;28;20033;-36
2023/04/19 10:16:41;;;;;;;2.30;1.50;;;;;;;13.00;47.96;102593.72;5074078;28;20028;-36
2023/04/19 10:19:15;;;;;;;3.15;1.52;;;;;;;12.91;47.08;102584.91;5074873;28;20031;-36
2023/04/19 10:21:42;;;;;;;3.38;1.40;;;;;;;12.97;47.69;102580.53;5074198;28;20044;-36
2023/04/19 10:24:08;;;;;;;2.63;1.40;;;;;;;13.15;46.45;102606.09;5074729;28;20025;-36
2023/04/19 10:27:02;;;;;;;1.83;1.23;;;;;;;13.15;44.82;102597.09;5073935;28;20119;-36
2023/04/19 10:29:56;;;;;;;3.13;0.93;;;;;;;13.22;42.76;102602.56;5074110;28;20075;-36
2023/04/19 10:32:23;;;;;;;3.55;1.02;;;;;;;13.16;41.63;102593.34;5073816;28;20115;-35
2023/04/19 10:34:52;;;;;;;1.40;0.90;;;;;;;13.40;41.93;102590.06;5074038;28;20032;-35
2023/04/19 10:37:21;;;;;;;1.25;0.85;;;;;;;13.53;41.69;102583.81;5073815;28;20024;-35
2023/04/19 10:39:46;;;;;;;3.58;1.10;;;;;;;13.39;39.71;102598.44;5074229;28;20437;-35
2023/04/19 10:42:12;;;;;;;4.85;1.13;;;;;;;13.25;40.12;102575.00;5073664;28;20032;-36
2023/04/19 10:44:37;;;;;;;3.13;0.82;;;;;;;13.39;40.25;102585.69;5074483;28;20029;-36
2023/04/19 10:47:04;;;;;;;2.72;1.30;;;;;;;13.10;40.20;102576.00;5073729;28;20447;-35
2023/04/19 10:49:30;;;;;;;2.05;0.90;;;;;;;13.26;41.15;102577.50;5073645;28;20384;-36
2023/04/19 10:51:57;;;;;;;2.80;1.00;;;;;;;13.25;40.46;102575.00;5074202;28;20032;-35
2023/04/19 10:54:34;;;;;;;1.52;1.02;;;;;;;13.43;41.40;102590.72;5074012;28;20071;-36
2023/04/19 10:57:01;;;;;;;4.35;1.30;;;;;;;13.29;40.89;102566.25;5073397;28;20421;-36
2023/04/19 10:59:35;;;;;;;2.15;1.10;;;;;;;13.35;40.85;102587.13;5073287;28;20021;-35
2023/04/19 11:02:23;;;;;;;2.20;1.20;;;;;;;13.39;40.43;102576.69;5074071;28;20056;-36
2023/04/19 11:04:51;;;;;;;3.22;1.40;;;;;;;13.52;41.85;102575.88;5073062;28;20533;-36
2023/04/19 11:07:17;;;;;;;2.53;1.30;;;;;;;13.60;41.24;102576.50;5073488;28;20025;-35
2023/04/19 11:09:47;;;;;;;6.53;1.58;;;;;;;13.61;41.68;102588.19;5073168;28;20033;-36
2023/04/19 11:12:19;;;;;;;2.20;1.35;;;;;;;13.65;42.07;102575.88;5073362;28;20469;-36
2023/04/19 11:14:49;;;;;;;3.63;1.27;;;;;;;13.64;42.07;102571.47;5073142;28;20035;-36
2023/04/19 11:17:18;;;;;;;3.90;1.27;;;;;;;13.81;43.20;102574.59;5073950;28;20419;-35
2023/04/19 11:19:57;;;;;;;4.03;1.30;;;;;;;13.87;42.70;102576.50;5073559;28;20465;-36
2023/04/19 11:22:33;;;;;;;1.95;1.00;;;;;;;13.99;40.88;102565.78;5073882;28;20064;-36